Time;durP1;ratioP1;P1;durP2;ratioP2;P2;SDS_P1;SDS_P2;PMS_P1;PMS_P2;Temp;Humidity;BMP_temperature;BMP_pressure;BME280_temperature;BME280_humidity;BME280_pressure;Samples;Min_cycle;Max_cycle;Signal;HPM_P1;HPM_P2
2021/08/02 00:01:29;;;;;;;;;;;;;;;20.47;73.45;99201.09;5052097;28;811;-59
2021/08/02 00:04:03;;;;;;;;;;;;;;;20.43;73.61;99201.28;5051970;28;798;-59
2021/08/02 00:06:39;;;;;;;;;;;;;;;20.46;73.90;99205.13;5052058;28;833;-59
2021/08/02 00:09:07;;;;;;;;;;;;;;;20.42;73.82;99202.53;5051968;28;810;-59
2021/08/02 00:11:38;;;;;;;;;;;;;;;20.36;74.01;99196.06;5051849;28;919;-59
2021/08/02 00:14:06;;;;;;;;;;;;;;;20.33;74.17;99200.63;5052035;28;1973;-59
2021/08/02 00:16:34;;;;;;;;;;;;;;;20.28;74.27;99195.66;5051634;28;1258;-59
2021/08/02 00:19:01;;;;;;;;;;;;;;;20.25;74.45;99201.47;5034506;28;847;-59
2021/08/02 00:21:28;;;;;;;;;;;;;;;20.22;74.57;99196.84;5052211;28;874;-59
2021/08/02 00:23:55;;;;;;;;;;;;;;;20.18;74.84;99197.81;5052084;28;768;-59
2021/08/02 00:26:22;;;;;;;;;;;;;;;20.16;75.12;99191.13;5052305;28;775;-59
2021/08/02 00:28:50;;;;;;;;;;;;;;;20.14;74.97;99199.25;5051694;28;862;-59
2021/08/02 00:31:17;;;;;;;;;;;;;;;20.09;75.08;99191.50;5052374;28;783;-59
2021/08/02 00:33:43;;;;;;;;;;;;;;;20.08;75.33;99192.75;5051650;28;1973;-59
2021/08/02 00:36:20;;;;;;;;;;;;;;;20.03;75.50;99194.19;5052308;28;885;-59
2021/08/02 00:38:52;;;;;;;;;;;;;;;20.01;75.68;99199.53;5051631;28;907;-59
2021/08/02 00:41:31;;;;;;;;;;;;;;;19.98;75.85;99192.84;5051507;28;831;-59
2021/08/02 00:44:14;;;;;;;;;;;;;;;19.95;76.06;99191.03;5051527;28;826;-59
2021/08/02 00:46:47;;;;;;;;;;;;;;;19.95;76.12;99193.03;5033996;28;855;-59
2021/08/02 00:49:15;;;;;;;;;;;;;;;19.95;76.27;99187.41;5051357;28;887;-59
2021/08/02 00:51:51;;;;;;;;;;;;;;;19.92;76.39;99185.59;5051394;28;839;-59
2021/08/02 00:54:19;;;;;;;;;;;;;;;19.94;76.40;99189.47;5051154;28;1890;-59
2021/08/02 00:56:47;;;;;;;;;;;;;;;19.98;76.32;99178.06;5051262;28;904;-59
2021/08/02 00:59:14;;;;;;;;;;;;;;;20.01;76.52;99184.72;5051312;28;835;-59
2021/08/02 01:01:43;;;;;;;;;;;;;;;19.95;76.51;99179.81;5051213;28;831;-59
2021/08/02 01:04:11;;;;;;;;;;;;;;;19.87;76.92;99187.03;5051830;28;783;-59
2021/08/02 01:06:38;;;;;;;;;;;;;;;19.82;77.01;99184.88;5051444;28;858;-59
2021/08/02 01:09:06;;;;;;;;;;;;;;;19.80;77.11;99184.63;5051648;28;885;-59
2021/08/02 01:11:33;;;;;;;;;;;;;;;19.78;77.30;99181.53;5051412;28;898;-59
2021/08/02 01:14:06;;;;;;;;;;;;;;;19.81;77.25;99188.97;5033217;28;2218;-59
2021/08/02 01:16:34;;;;;;;;;;;;;;;19.85;77.39;99189.56;5052503;28;1351;-59
2021/08/02 01:19:08;;;;;;;;;;;;;;;19.82;77.34;99198.91;5055112;28;807;-59
2021/08/02 01:21:36;;;;;;;;;;;;;;;19.76;77.53;99189.66;5055008;28;957;-59
2021/08/02 01:24:04;;;;;;;;;;;;;;;19.73;77.46;99190.59;5054863;28;885;-59
2021/08/02 01:26:43;;;;;;;;;;;;;;;19.68;77.44;99185.63;5055011;28;864;-59
2021/08/02 01:29:29;;;;;;;;;;;;;;;19.61;77.59;99189.59;5055221;28;826;-59
2021/08/02 01:31:55;;;;;;;;;;;;;;;19.63;77.69;99189.09;5054910;28;795;-59
2021/08/02 01:34:22;;;;;;;;;;;;;;;19.69;77.75;99189.97;5054758;28;1981;-59
2021/08/02 01:36:49;;;;;;;;;;;;;;;19.65;77.71;99192.97;5054796;28;894;-59
2021/08/02 01:39:16;;;;;;;;;;;;;;;19.60;78.14;99190.81;5054713;28;963;-59
2021/08/02 01:41:43;;;;;;;;;;;;;;;19.60;78.15;99199.22;5054639;28;855;-59
2021/08/02 01:44:09;;;;;;;;;;;;;;;19.53;78.24;99194.78;5054769;28;819;-59
2021/08/02 01:46:41;;;;;;;;;;;;;;;19.48;78.24;99191.84;5054620;28;810;-59
2021/08/02 01:49:15;;;;;;;;;;;;;;;19.48;78.20;99191.84;5054692;28;900;-59
2021/08/02 01:51:41;;;;;;;;;;;;;;;19.44;78.21;99194.06;5054515;28;853;-59
2021/08/02 01:54:09;;;;;;;;;;;;;;;19.44;78.17;99199.66;5054399;28;1894;-59
2021/08/02 01:56:44;;;;;;;;;;;;;;;19.42;78.44;99193.78;5054368;28;835;-59
2021/08/02 01:59:15;;;;;;;;;;;;;;;19.49;78.58;99194.19;5054395;28;802;-59
2021/08/02 02:02:00;;;;;;;;;;;;;;;19.52;78.31;99198.03;5054384;28;810;-59
2021/08/02 02:04:36;;;;;;;;;;;;;;;19.45;78.28;99195.63;5054265;28;905;-59
2021/08/02 02:07:04;;;;;;;;;;;;;;;19.36;78.44;99202.81;5036483;28;855;-59
2021/08/02 02:09:34;;;;;;;;;;;;;;;19.32;78.29;99199.44;5054203;28;943;-59
2021/08/02 02:12:02;;;;;;;;;;;;;;;19.29;78.19;99206.00;5054174;28;913;-59
2021/08/02 02:14:30;;;;;;;;;;;;;;;19.26;77.98;99198.53;5054329;28;1964;-59
2021/08/02 02:16:58;;;;;;;;;;;;;;;19.28;78.00;99200.88;5014427;28;882;-59
2021/08/02 02:19:26;;;;;;;;;;;;;;;19.31;77.85;99195.09;5014731;28;827;-59
2021/08/02 02:21:54;;;;;;;;;;;;;;;19.33;77.81;99198.19;5014651;28;875;-59
2021/08/02 02:24:21;;;;;;;;;;;;;;;19.33;77.66;99212.19;5014363;28;871;-59
2021/08/02 02:26:49;;;;;;;;;;;;;;;19.32;77.80;99209.88;5012867;28;874;-59
2021/08/02 02:29:16;;;;;;;;;;;;;;;19.27;77.74;99216.91;5013583;28;831;-59
2021/08/02 02:31:45;;;;;;;;;;;;;;;19.36;77.90;99219.63;5013983;28;902;-59
2021/08/02 02:34:11;;;;;;;;;;;;;;;19.59;77.96;99220.88;5013976;28;1918;-59
2021/08/02 02:36:39;;;;;;;;;;;;;;;19.76;77.98;99214.88;5013930;28;859;-59
2021/08/02 02:39:06;;;;;;;;;;;;;;;19.88;78.00;99222.22;5013902;28;949;-59
2021/08/02 02:41:33;;;;;;;;;;;;;;;20.01;78.11;99227.56;5013963;28;873;-59
2021/08/02 02:44:01;;;;;;;;;;;;;;;20.12;77.70;99232.59;5012770;28;903;-59
2021/08/02 02:46:28;;;;;;;;;;;;;;;20.13;77.42;99232.13;5013819;28;831;-59
2021/08/02 02:48:57;;;;;;;;;;;;;;;20.02;77.59;99229.13;5013773;28;979;-59
2021/08/02 02:51:26;;;;;;;;;;;;;;;19.85;77.79;99228.03;5013834;28;799;-59
2021/08/02 02:53:54;;;;;;;;;;;;;;;19.77;77.95;99231.19;5013525;28;1918;-59
2021/08/02 02:56:21;;;;;;;;;;;;;;;19.75;77.90;99225.28;5013746;28;810;-59
2021/08/02 02:58:47;;;;;;;;;;;;;;;19.67;77.96;99228.91;5013499;28;949;-59
2021/08/02 03:01:17;;;;;;;;;;;;;;;19.60;78.20;99227.25;5013646;28;885;-59
2021/08/02 03:03:49;;;;;;;;;;;;;;;19.59;77.97;99231.31;5013466;28;886;-59
2021/08/02 03:06:16;;;;;;;;;;;;;;;19.58;77.83;99233.34;5013513;28;858;-59
2021/08/02 03:08:44;;;;;;;;;;;;;;;19.50;77.88;99234.19;5013413;28;811;-59
2021/08/02 03:11:12;;;;;;;;;;;;;;;19.48;78.12;99231.06;5013655;28;854;-59
2021/08/02 03:13:38;;;;;;;;;;;;;;;19.49;77.99;99230.59;5013399;28;1890;-59
2021/08/02 03:16:06;;;;;;;;;;;;;;;19.52;77.98;99243.69;5025024;28;1266;-59
2021/08/02 03:18:34;;;;;;;;;;;;;;;19.52;78.02;99243.69;5032893;28;831;-59
2021/08/02 03:21:01;;;;;;;;;;;;;;;19.54;78.02;99245.97;5033601;28;771;-59
2021/08/02 03:23:42;;;;;;;;;;;;;;;19.53;78.17;99252.84;5032835;28;901;-59
2021/08/02 03:26:17;;;;;;;;;;;;;;;19.52;78.23;99254.09;5032873;28;803;-59
2021/08/02 03:29:00;;;;;;;;;;;;;;;19.51;78.33;99252.56;5033199;28;878;-59
2021/08/02 03:31:34;;;;;;;;;;;;;;;19.50;78.24;99245.38;5032732;28;799;-59
2021/08/02 03:34:06;;;;;;;;;;;;;;;19.56;78.17;99254.69;5032659;28;1971;-59
2021/08/02 03:36:33;;;;;;;;;;;;;;;19.63;77.94;99257.16;5032622;28;895;-59
2021/08/02 03:39:01;;;;;;;;;;;;;;;19.64;77.88;99252.31;5032293;28;849;-59
2021/08/02 03:41:28;;;;;;;;;;;;;;;19.70;77.89;99258.84;5032522;28;893;-59
2021/08/02 03:43:57;;;;;;;;;;;;;;;19.85;77.48;99250.47;5032557;28;811;-59
2021/08/02 03:46:25;;;;;;;;;;;;;;;20.06;77.09;99251.38;5032514;28;831;-59
2021/08/02 03:48:52;;;;;;;;;;;;;;;20.25;76.53;99249.97;5032382;28;846;-59
2021/08/02 03:51:18;;;;;;;;;;;;;;;20.38;76.25;99253.25;5032012;28;811;-59
2021/08/02 03:53:48;;;;;;;;;;;;;;;20.54;75.98;99254.78;5032426;28;1889;-59
2021/08/02 03:56:17;;;;;;;;;;;;;;;20.72;75.48;99253.09;5032413;28;986;-59
2021/08/02 03:58:43;;;;;;;;;;;;;;;20.89;75.11;99254.13;5032236;28;815;-59
2021/08/02 04:01:10;;;;;;;;;;;;;;;21.06;74.75;99256.38;5031797;28;818;-59
2021/08/02 04:03:37;;;;;;;;;;;;;;;21.20;74.44;99258.41;5031866;28;863;-59
2021/08/02 04:06:04;;;;;;;;;;;;;;;21.36;74.05;99257.09;5032128;28;807;-59
2021/08/02 04:08:31;;;;;;;;;;;;;;;21.52;73.88;99248.13;5031934;28;889;-59
2021/08/02 04:10:58;;;;;;;;;;;;;;;21.68;73.52;99249.63;5031794;28;818;-59
2021/08/02 04:13:24;;;;;;;;;;;;;;;21.88;73.23;99250.88;5031929;28;1899;-59
2021/08/02 04:15:51;;;;;;;;;;;;;;;22.05;72.87;99249.00;5042872;28;1267;-59
2021/08/02 04:18:17;;;;;;;;;;;;;;;22.26;72.43;99246.19;5051958;28;885;-59
2021/08/02 04:20:43;;;;;;;;;;;;;;;22.47;71.95;99249.69;5051345;28;839;-59
2021/08/02 04:23:11;;;;;;;;;;;;;;;22.63;71.81;99247.00;5051629;28;993;-59
2021/08/02 04:25:38;;;;;;;;;;;;;;;22.86;71.06;99246.44;5051262;28;854;-59
2021/08/02 04:28:06;;;;;;;;;;;;;;;23.06;70.40;99243.50;5051528;28;922;-59
2021/08/02 04:30:33;;;;;;;;;;;;;;;23.23;69.79;99250.03;5051592;28;806;-59
2021/08/02 04:33:00;;;;;;;;;;;;;;;23.43;69.15;99248.34;5051449;28;1913;-59
2021/08/02 04:35:27;;;;;;;;;;;;;;;23.64;68.51;99251.75;5051859;28;893;-59
2021/08/02 04:37:54;;;;;;;;;;;;;;;23.81;67.87;99261.13;5051518;28;846;-60
2021/08/02 04:40:21;;;;;;;;;;;;;;;23.93;67.78;99255.50;5051504;28;870;-59
2021/08/02 04:42:47;;;;;;;;;;;;;;;24.09;67.95;99260.44;5051464;28;841;-59
2021/08/02 04:45:14;;;;;;;;;;;;;;;24.19;67.46;99252.47;5051451;28;814;-59
2021/08/02 04:47:41;;;;;;;;;;;;;;;24.41;67.14;99255.34;5051467;28;830;-59
2021/08/02 04:50:08;;;;;;;;;;;;;;;24.60;66.34;99261.31;5033229;28;898;-59
2021/08/02 04:52:35;;;;;;;;;;;;;;;24.76;66.02;99261.81;5050984;28;1898;-59
2021/08/02 04:55:02;;;;;;;;;;;;;;;24.89;65.49;99250.75;5051336;28;888;-60
2021/08/02 04:57:29;;;;;;;;;;;;;;;25.06;64.70;99257.16;5033444;28;1173;-59
2021/08/02 04:59:56;;;;;;;;;;;;;;;25.13;64.33;99244.53;5051344;28;885;-59
2021/08/02 05:02:23;;;;;;;;;;;;;;;25.30;64.16;99246.59;5051272;28;860;-59
2021/08/02 05:04:49;;;;;;;;;;;;;;;25.50;63.11;99251.94;5051243;28;918;-59
2021/08/02 05:07:17;;;;;;;;;;;;;;;25.70;62.69;99247.25;5051208;28;842;-59
